Etusivu
METAR-TAF:

METAR-TAF

Lentoasemat :

Tumbes, Peru

Leveyspiiri: 03-33S, Pituuspiiri: 080-24W, korkeus merenpinnasta: 25 m

Tämänhetkinen sää

Tämä raportti tehtiin 28 minuuttia sitten, kello 05.00 UTC
tyyntä
Lämpötila 25°C
Kosteus 83%
Ilmanpaine 1011 hPa
Näkyvyys 10 km tai enemmän
Hajanaisia pilviä 1500 ft:n korkeudessa
Hajanaisia pilviä 2500 ft:n korkeudessa

METAR: SPME 190500Z 00000KT 9999 SCT015 SCT025 25/22 Q1011 RMK BIRD HAZARD RWY 32/14 PP000

Aika: 00:28 (05:28 UTC)

Sääennuste

Tämä raportti tehtiin 6 tuntia ja 28 minuuttia sitten, kello 23.00 UTC
Ennuste voimassa 19. päivästä klo 00 UTC - 19. päivään klo 24 UTC
Tuuli 3 kn eri suunnista
Näkyvyys 10 km tai enemmän
Pilvistä 1500 ft:n korkeudessa
Tulossa
19. päivästä klo 15 UTC - 19. päivään klo 17 UTC
Hajonneita pilviä 1700 ft:n korkeudessa

TAF: SPME 182300Z 1900/1924 VRB03KT 9999 OVC015 TX29/1919Z TN23/1911Z BECMG 1915/1917 BKN017

Säähavainnot ja -ennusteet yli 4000 lentoasemalta (METAR- ja TAF-raportit).

Käytössä olevat sääasemat on merkitty karttaan keltaisilla ja punaisilla pisteillä.

Aseta hiiri pisteen päälle nähdäksesi sääaseman nimen.

Klikkaa sitten nähdäksesi säähavainnot ja -ennusteet.

Kartan vaihtaminen: klikkaa mustalla rastilla varustettuja vihreitä pisteitä, niin voit zoomata sisään; viivalla varustettua vihreää pistettä, niin voit zoomata ulos tai vihreitä nuolia, niin pääset viereisille kartoille.


METAR-TAF: